Time;durP1;ratioP1;P1;durP2;ratioP2;P2;SDS_P1;SDS_P2;PMS_P1;PMS_P2;Temp;Humidity;BMP_temperature;BMP_pressure;BME280_temperature;BME280_humidity;BME280_pressure;Samples;Min_cycle;Max_cycle;Signal;HPM_P1;HPM_P2
2023/10/14 00:01:31;;;;;;;1.30;0.22;;;14.30;99.90;;;;;;5017176;28;20040;-74
2023/10/14 00:03:57;;;;;;;2.13;0.30;;;14.30;99.90;;;;;;5000126;28;20045;-74
2023/10/14 00:06:25;;;;;;;1.23;0.30;;;14.40;99.90;;;;;;5017553;28;20025;-74
2023/10/14 00:08:56;;;;;;;2.17;0.40;;;14.40;99.90;;;;;;5000524;28;20032;-75
2023/10/14 00:11:23;;;;;;;3.13;0.32;;;14.30;99.90;;;;;;5018170;28;20032;-74
2023/10/14 00:13:52;;;;;;;1.23;0.30;;;14.30;99.90;;;;;;5017564;28;20041;-74
2023/10/14 00:16:35;;;;;;;1.58;0.40;;;14.30;99.90;;;;;;5018607;28;20033;-75
2023/10/14 00:19:08;;;;;;;2.55;0.30;;;14.40;99.90;;;;;;5017239;28;20030;-76
2023/10/14 00:21:36;;;;;;;2.20;0.30;;;14.30;99.90;;;;;;4994689;28;20037;-74
2023/10/14 00:24:06;;;;;;;2.70;0.40;;;14.40;99.90;;;;;;4999056;28;20033;-74
2023/10/14 00:26:33;;;;;;;1.67;0.32;;;14.30;99.90;;;;;;5028085;28;20477;-74
2023/10/14 00:31:44;;;;;;;3.10;0.30;;;14.30;99.90;;;;;;5011299;28;20056;-74
2023/10/14 00:34:10;;;;;;;1.40;0.32;;;14.30;99.90;;;;;;4983251;28;20369;-74
2023/10/14 00:36:37;;;;;;;3.88;0.30;;;14.30;99.90;;;;;;5016781;28;20044;-74
2023/10/14 00:39:14;;;;;;;1.67;0.40;;;14.30;99.90;;;;;;5015473;28;20041;-75
2023/10/14 00:41:43;;;;;;;2.40;0.32;;;14.30;99.90;;;;;;4998192;28;20033;-75
2023/10/14 00:44:11;;;;;;;1.50;0.43;;;14.30;99.90;;;;;;5014673;28;20041;-75
2023/10/14 00:46:42;;;;;;;2.13;0.40;;;14.30;99.90;;;;;;5016839;28;20022;-75
2023/10/14 00:49:12;;;;;;;4.53;0.50;;;14.30;99.90;;;;;;5010514;28;20068;-76
2023/10/14 00:51:44;;;;;;;3.22;0.50;;;14.30;99.90;;;;;;4997568;28;20506;-75
2023/10/14 00:54:11;;;;;;;;;;;14.20;99.90;;;;;;5010544;28;20037;-76
2023/10/14 00:56:42;;;;;;;3.80;0.90;;;14.20;99.90;;;;;;5016533;28;20375;-75
2023/10/14 00:59:09;;;;;;;5.75;0.70;;;14.20;99.90;;;;;;4999177;28;20033;-76
2023/10/14 01:04:31;;;;;;;7.28;0.70;;;14.10;99.90;;;;;;5014075;28;20037;-75
2023/10/14 01:09:33;;;;;;;5.38;0.70;;;13.90;99.90;;;;;;5015472;28;20029;-75
2023/10/14 01:12:16;;;;;;;4.47;0.73;;;13.80;99.90;;;;;;5016508;28;20033;-75
2023/10/14 01:14:46;;;;;;;4.00;0.60;;;13.70;99.90;;;;;;4982566;28;20045;-75
2023/10/14 01:17:21;;;;;;;3.92;0.60;;;13.60;99.90;;;;;;5016312;28;20033;-75
2023/10/14 01:19:47;;;;;;;4.32;0.60;;;13.60;99.90;;;;;;4999290;28;20037;-75
2023/10/14 01:22:14;;;;;;;2.13;0.65;;;13.60;99.90;;;;;;5017601;28;20026;-75
2023/10/14 01:24:41;;;;;;;3.13;0.50;;;13.50;99.90;;;;;;5001130;28;20405;-75
2023/10/14 01:27:10;;;;;;;2.00;0.43;;;13.50;99.90;;;;;;4993887;28;20029;-76
2023/10/14 01:29:41;;;;;;;2.80;0.60;;;13.50;99.90;;;;;;4998100;28;20034;-75
2023/10/14 01:35:31;;;;;;;5.55;0.60;;;13.50;99.90;;;;;;5017054;28;20034;-75
2023/10/14 01:37:59;;;;;;;3.58;0.70;;;13.40;99.90;;;;;;4998015;28;20033;-75
2023/10/14 01:40:48;;;;;;;7.68;0.68;;;13.40;99.90;;;;;;4998353;28;20033;-75
2023/10/14 01:43:23;;;;;;;5.45;0.90;;;13.40;99.90;;;;;;5027805;28;20041;-75
2023/10/14 01:46:00;;;;;;;2.60;0.77;;;13.40;99.90;;;;;;5014999;28;20581;-75
2023/10/14 01:48:32;;;;;;;4.80;0.90;;;13.40;99.90;;;;;;5031778;28;20040;-75
2023/10/14 01:50:59;;;;;;;3.65;1.00;;;13.40;99.90;;;;;;5016124;28;20049;-76
2023/10/14 01:53:28;;;;;;;5.82;0.90;;;13.40;99.90;;;;;;4999978;28;20036;-74
2023/10/14 01:56:01;;;;;;;4.50;0.73;;;13.30;99.90;;;;;;4993479;28;20042;-74
2023/10/14 01:58:36;;;;;;;2.88;0.50;;;13.30;99.90;;;;;;5015185;28;20029;-75
2023/10/14 02:01:14;;;;;;;3.42;0.70;;;13.20;99.90;;;;;;5028890;28;20057;-75
2023/10/14 02:03:44;;;;;;;6.85;0.75;;;13.20;99.90;;;;;;4994551;28;20041;-75
2023/10/14 02:06:16;;;;;;;3.80;0.57;;;13.20;99.90;;;;;;4998971;28;20036;-75
2023/10/14 02:08:52;;;;;;;2.97;0.80;;;13.10;99.90;;;;;;5029088;28;20042;-75
2023/10/14 02:11:20;;;;;;;11.77;2.50;;;13.10;99.90;;;;;;4998448;28;20033;-75
2023/10/14 02:13:50;;;;;;;9.45;1.50;;;13.00;99.90;;;;;;5020019;28;20392;-75
2023/10/14 02:16:29;;;;;;;5.38;0.85;;;13.00;99.90;;;;;;5020544;28;20134;-75
2023/10/14 02:19:41;;;;;;;4.70;0.80;;;13.00;99.90;;;;;;4988615;28;20602;-76
2023/10/14 02:21:43;;;;;;;5.82;0.73;;;13.00;99.90;;;;;;5012838;28;20496;-75
2023/10/14 02:24:10;;;;;;;4.35;0.70;;;13.00;99.90;;;;;;5020310;28;20048;-75
2023/10/14 02:26:38;;;;;;;2.42;1.00;;;13.00;99.90;;;;;;5019060;28;20049;-75
2023/10/14 02:29:07;;;;;;;3.92;1.10;;;12.90;99.90;;;;;;5019259;28;22588;-75
2023/10/14 02:31:36;;;;;;;3.30;0.77;;;12.90;99.90;;;;;;5002572;28;20036;-75
2023/10/14 02:34:07;;;;;;;4.13;0.80;;;12.90;99.90;;;;;;5000090;28;20385;-75
2023/10/14 02:36:35;;;;;;;13.20;1.35;;;12.80;99.90;;;;;;5018605;28;20037;-75
2023/10/14 02:39:14;;;;;;;2.75;0.70;;;12.80;99.90;;;;;;5018418;28;20060;-75
2023/10/14 02:41:44;;;;;;;6.75;0.90;;;12.70;99.90;;;;;;4996932;28;20405;-75
2023/10/14 02:46:45;;;;;;;7.85;1.00;;;12.40;99.90;;;;;;5019246;28;20037;-75
2023/10/14 02:49:15;;;;;;;7.95;1.05;;;12.40;99.90;;;;;;4991179;28;20044;-75
2023/10/14 02:51:43;;;;;;;5.00;0.85;;;12.30;99.90;;;;;;5018292;28;20365;-75
2023/10/14 02:54:26;;;;;;;5.30;0.77;;;12.20;99.90;;;;;;5017106;28;20688;-75
2023/10/14 02:59:23;;;;;;;8.70;1.13;;;12.10;99.90;;;;;;5018304;28;20114;-75
2023/10/14 03:07:33;;;;;;;4.30;0.90;;;12.00;99.90;;;;;;5018123;28;20472;-75
2023/10/14 03:12:49;;;;;;;6.32;0.80;;;11.90;99.90;;;;;;5015031;28;20033;-75
2023/10/14 03:15:21;;;;;;;6.57;0.98;;;11.80;99.90;;;;;;5019912;28;20038;-75
2023/10/14 03:17:56;;;;;;;6.53;0.70;;;11.80;99.90;;;;;;5018572;28;20449;-75
2023/10/14 03:23:22;;;;;;;4.32;0.75;;;11.70;99.90;;;;;;5028850;28;20706;-75
2023/10/14 03:25:51;;;;;;;7.60;1.08;;;11.60;99.90;;;;;;5015333;28;20037;-75
2023/10/14 03:28:24;;;;;;;1.98;0.50;;;11.50;99.90;;;;;;5016481;28;20653;-75
2023/10/14 03:30:55;;;;;;;10.57;1.27;;;11.50;99.90;;;;;;4998269;28;20045;-75
2023/10/14 03:33:24;;;;;;;6.68;1.02;;;11.40;99.90;;;;;;5000743;28;20040;-75
2023/10/14 03:36:05;;;;;;;6.05;0.80;;;11.40;99.90;;;;;;5018038;28;20033;-75
2023/10/14 03:43:58;;;;;;;5.75;0.93;;;11.20;99.90;;;;;;5032255;28;20033;-75
2023/10/14 03:46:34;;;;;;;4.50;0.70;;;11.20;99.90;;;;;;5018631;28;20036;-75
2023/10/14 03:49:06;;;;;;;7.40;1.00;;;11.10;99.90;;;;;;5030736;28;20037;-75
2023/10/14 03:51:33;;;;;;;6.93;1.20;;;11.10;99.90;;;;;;5001546;28;20041;-75
2023/10/14 03:54:08;;;;;;;8.30;0.80;;;11.00;99.90;;;;;;5000913;28;20392;-75
2023/10/14 03:56:36;;;;;;;12.00;1.25;;;11.00;99.90;;;;;;5016755;28;20037;-75
2023/10/14 03:59:03;;;;;;;5.50;0.75;;;11.00;99.90;;;;;;5016997;28;20029;-75
2023/10/14 04:04:19;;;;;;;16.63;1.85;;;10.90;99.90;;;;;;5018061;28;20033;-75
2023/10/14 04:12:08;;;;;;;6.30;0.88;;;10.80;99.90;;;;;;5016887;28;20036;-75
2023/10/14 04:14:36;;;;;;;4.75;0.60;;;10.80;99.90;;;;;;5017567;28;20037;-76
2023/10/14 04:17:19;;;;;;;6.68;1.42;;;10.70;99.90;;;;;;5016832;28;20381;-75
2023/10/14 04:19:47;;;;;;;4.70;0.70;;;10.70;99.90;;;;;;4996773;28;20473;-75
2023/10/14 04:22:27;;;;;;;5.70;0.90;;;10.60;99.90;;;;;;5029691;28;20033;-75
2023/10/14 04:30:38;;;;;;;7.55;1.10;;;10.50;99.90;;;;;;5015869;28;20684;-75
2023/10/14 04:33:17;;;;;;;4.97;0.70;;;10.50;99.90;;;;;;4982036;28;20041;-75
2023/10/14 04:38:37;;;;;;;11.10;1.20;;;10.50;99.90;;;;;;5016439;28;20025;-74
2023/10/14 04:41:12;;;;;;;2.78;0.52;;;10.40;99.90;;;;;;5017535;28;20021;-75
2023/10/14 04:46:16;;;;;;;9.95;1.17;;;10.40;99.90;;;;;;5017435;28;20469;-75
2023/10/14 04:48:59;;;;;;;9.70;0.90;;;10.30;99.90;;;;;;5016589;28;20037;-75
2023/10/14 04:51:34;;;;;;;;;;;10.30;99.90;;;;;;5017967;28;20030;-75
2023/10/14 04:54:00;;;;;;;11.20;1.02;;;10.30;99.90;;;;;;4997205;28;19932;-75
2023/10/14 04:56:33;;;;;;;3.67;0.70;;;10.20;99.90;;;;;;4983338;28;20056;-75
2023/10/14 04:59:00;;;;;;;7.05;0.95;;;10.20;99.90;;;;;;4999800;28;20033;-75
2023/10/14 05:01:27;;;;;;;10.15;1.02;;;10.20;99.90;;;;;;5015822;28;20030;-75
2023/10/14 05:03:57;;;;;;;3.13;0.70;;;10.10;99.90;;;;;;5015306;28;20847;-74
2023/10/14 05:06:29;;;;;;;7.57;0.80;;;10.10;99.90;;;;;;4994945;28;20040;-74
2023/10/14 05:08:57;;;;;;;10.57;0.90;;;10.10;99.90;;;;;;5013126;28;21226;-75
2023/10/14 05:11:25;;;;;;;7.38;0.77;;;10.10;99.90;;;;;;4983517;28;20287;-75
2023/10/14 05:14:14;;;;;;;8.18;1.10;;;10.10;99.90;;;;;;4999774;28;20057;-75
2023/10/14 05:19:25;;;;;;;8.90;1.05;;;10.00;99.90;;;;;;4997532;28;20401;-75
2023/10/14 05:22:13;;;;;;;8.85;1.38;;;10.00;99.90;;;;;;5031305;28;20037;-75
2023/10/14 05:24:48;;;;;;;5.82;0.57;;;10.00;99.90;;;;;;4998946;28;20548;-75
2023/10/14 05:27:21;;;;;;;6.65;0.98;;;10.00;99.90;;;;;;4999081;28;20416;-75
2023/10/14 05:29:52;;;;;;;4.70;0.80;;;9.90;99.90;;;;;;4992193;28;20040;-75
2023/10/14 05:32:20;;;;;;;7.57;1.02;;;9.90;99.90;;;;;;4999173;28;20044;-75
2023/10/14 05:34:53;;;;;;;13.73;1.40;;;9.90;99.90;;;;;;5015316;28;20037;-75
2023/10/14 05:37:21;;;;;;;6.93;1.20;;;9.90;99.90;;;;;;5016337;28;20472;-75
2023/10/14 05:39:50;;;;;;;7.10;0.70;;;9.90;99.90;;;;;;5015819;28;20034;-75
2023/10/14 05:42:17;;;;;;;7.95;0.73;;;9.90;99.90;;;;;;5014421;28;20033;-75
2023/10/14 05:44:47;;;;;;;5.45;0.70;;;9.90;99.90;;;;;;5017006;28;20037;-75
2023/10/14 05:47:15;;;;;;;8.82;1.23;;;9.90;99.90;;;;;;5016144;28;20044;-75
2023/10/14 05:49:43;;;;;;;7.93;1.00;;;9.90;99.90;;;;;;5014588;28;20045;-75
2023/10/14 05:52:13;;;;;;;6.50;0.80;;;9.90;99.90;;;;;;4996712;28;20039;-75
2023/10/14 05:54:41;;;;;;;9.68;0.95;;;9.90;99.90;;;;;;5015847;28;20565;-75
2023/10/14 05:57:08;;;;;;;3.97;0.70;;;9.80;99.90;;;;;;5017338;28;20038;-75
2023/10/14 05:59:36;;;;;;;4.22;0.70;;;9.80;99.90;;;;;;4998533;28;20033;-76
2023/10/14 06:02:07;;;;;;;4.57;0.95;;;9.80;99.90;;;;;;5014737;28;20030;-75
2023/10/14 06:04:41;;;;;;;7.53;0.60;;;9.70;99.90;;;;;;5014784;28;20983;-75
2023/10/14 06:07:08;;;;;;;4.93;0.70;;;9.70;99.90;;;;;;4995490;28;20033;-75
2023/10/14 06:09:39;;;;;;;4.97;0.60;;;9.70;99.90;;;;;;4998338;28;20037;-75
2023/10/14 06:12:12;;;;;;;6.38;0.98;;;9.70;99.90;;;;;;5030139;28;20033;-75
2023/10/14 06:14:42;;;;;;;6.03;1.00;;;9.70;99.90;;;;;;5028625;28;20745;-74
2023/10/14 06:17:09;;;;;;;3.30;0.40;;;9.70;99.90;;;;;;4997537;28;20048;-75
2023/10/14 06:19:36;;;;;;;12.93;1.48;;;9.70;99.90;;;;;;5013958;28;20049;-75
2023/10/14 06:22:03;;;;;;;8.57;0.98;;;9.70;99.90;;;;;;5014459;28;20384;-75
2023/10/14 06:24:30;;;;;;;4.90;1.05;;;9.70;99.90;;;;;;5013071;28;20063;-75
2023/10/14 06:27:07;;;;;;;9.88;1.00;;;9.70;99.90;;;;;;5015705;28;20029;-75
2023/10/14 06:29:34;;;;;;;4.97;1.17;;;9.70;99.90;;;;;;4980429;28;21097;-75
2023/10/14 06:32:03;;;;;;;9.30;1.17;;;9.80;99.90;;;;;;5030247;28;20034;-75
2023/10/14 06:34:34;;;;;;;5.40;1.05;;;9.80;99.90;;;;;;5013076;28;20045;-75
2023/10/14 06:37:06;;;;;;;9.85;1.48;;;9.80;99.90;;;;;;5016632;28;20038;-75
2023/10/14 06:39:39;;;;;;;6.07;0.82;;;9.90;99.90;;;;;;5014017;28;20034;-76
2023/10/14 06:42:06;;;;;;;8.52;1.33;;;9.90;99.90;;;;;;5014620;28;20038;-75
2023/10/14 06:44:33;;;;;;;7.85;1.80;;;10.00;99.90;;;;;;4996963;28;20084;-75
2023/10/14 06:46:59;;;;;;;5.85;1.52;;;10.00;99.90;;;;;;5013133;28;20033;-75
2023/10/14 06:49:36;;;;;;;6.45;1.67;;;10.00;99.90;;;;;;5015848;28;20481;-74
2023/10/14 06:52:04;;;;;;;9.02;1.17;;;10.00;99.90;;;;;;5015984;28;20041;-75
2023/10/14 06:54:36;;;;;;;11.27;1.13;;;10.10;99.90;;;;;;5029141;28;20026;-74
2023/10/14 06:57:07;;;;;;;4.85;0.70;;;10.10;99.90;;;;;;5016255;28;20040;-74
2023/10/14 06:59:37;;;;;;;6.03;0.70;;;10.20;99.90;;;;;;5000939;28;20040;-74
2023/10/14 07:02:03;;;;;;;10.90;0.95;;;10.20;99.90;;;;;;5017594;28;20044;-74
2023/10/14 07:04:37;;;;;;;12.07;0.82;;;10.20;99.90;;;;;;5016970;28;20037;-74
2023/10/14 07:07:08;;;;;;;11.25;1.05;;;10.30;99.90;;;;;;5001654;28;20048;-73
2023/10/14 07:09:37;;;;;;;11.45;1.20;;;10.40;99.90;;;;;;4998518;28;20171;-73
2023/10/14 07:12:13;;;;;;;8.18;0.65;;;10.50;99.90;;;;;;5001745;28;20464;-74
2023/10/14 07:14:40;;;;;;;7.75;0.93;;;10.50;99.90;;;;;;5017926;28;20510;-74
2023/10/14 07:17:07;;;;;;;9.38;1.15;;;10.50;99.90;;;;;;5016282;28;20594;-74
2023/10/14 07:19:35;;;;;;;12.73;1.00;;;10.60;99.90;;;;;;5017045;28;20049;-74
2023/10/14 07:22:07;;;;;;;13.30;2.80;;;10.60;99.90;;;;;;5014853;28;20041;-76
2023/10/14 07:24:37;;;;;;;9.00;1.38;;;10.70;99.90;;;;;;5000873;28;20030;-76
2023/10/14 07:27:04;;;;;;;10.25;1.00;;;10.70;99.90;;;;;;5018827;28;20037;-76
2023/10/14 07:29:30;;;;;;;5.95;0.98;;;10.80;99.90;;;;;;5030608;28;20029;-75
2023/10/14 07:31:56;;;;;;;7.90;1.10;;;10.80;99.90;;;;;;5015666;28;20066;-75
2023/10/14 07:34:23;;;;;;;7.40;0.80;;;10.90;99.90;;;;;;4999178;28;20030;-76
2023/10/14 07:36:53;;;;;;;12.18;1.52;;;10.90;99.90;;;;;;4998934;28;20029;-75
2023/10/14 07:39:28;;;;;;;9.65;1.48;;;11.00;99.90;;;;;;5016198;28;20029;-75
2023/10/14 07:41:55;;;;;;;5.20;1.15;;;11.00;99.90;;;;;;4981931;28;20037;-77
2023/10/14 07:44:25;;;;;;;7.50;1.10;;;11.10;99.90;;;;;;5015701;28;20048;-76
2023/10/14 07:46:53;;;;;;;6.90;1.17;;;11.10;99.90;;;;;;5001375;28;22758;-76
2023/10/14 07:49:20;;;;;;;7.28;1.25;;;11.10;99.90;;;;;;4997986;28;20037;-76
2023/10/14 07:51:46;;;;;;;11.65;1.48;;;11.20;99.90;;;;;;5017510;28;20036;-76
2023/10/14 07:54:13;;;;;;;8.68;1.60;;;11.20;99.90;;;;;;5017459;28;20400;-75
2023/10/14 07:56:46;;;;;;;5.90;0.80;;;11.30;99.90;;;;;;5016690;28;20409;-76
2023/10/14 07:59:12;;;;;;;8.93;2.47;;;11.40;99.90;;;;;;5017134;28;20042;-75
2023/10/14 08:01:39;;;;;;;6.85;1.88;;;11.40;99.90;;;;;;5030146;28;20041;-75
2023/10/14 08:04:13;;;;;;;14.23;2.17;;;11.50;99.90;;;;;;5016382;28;20041;-76
2023/10/14 08:06:41;;;;;;;14.77;2.55;;;11.50;99.90;;;;;;4999304;28;20037;-75
2023/10/14 08:09:23;;;;;;;11.63;1.70;;;11.60;99.90;;;;;;5014143;28;20034;-76
2023/10/14 08:11:51;;;;;;;12.55;1.10;;;11.60;99.90;;;;;;4997926;28;20056;-76
2023/10/14 08:14:18;;;;;;;10.27;1.83;;;11.60;99.90;;;;;;5012158;28;20049;-77
2023/10/14 08:16:45;;;;;;;8.90;1.00;;;11.70;99.90;;;;;;5009250;28;20393;-78
2023/10/14 08:19:12;;;;;;;7.38;0.85;;;11.70;99.90;;;;;;5012808;28;20403;-76
2023/10/14 08:21:38;;;;;;;5.80;1.00;;;11.70;99.90;;;;;;5015254;28;20388;-76
2023/10/14 08:24:07;;;;;;;10.30;1.08;;;11.80;99.90;;;;;;5011520;28;20048;-76
2023/10/14 08:26:36;;;;;;;7.15;1.13;;;11.80;99.90;;;;;;5018444;28;20048;-77
2023/10/14 08:29:03;;;;;;;7.75;0.80;;;11.90;99.90;;;;;;5016638;28;20057;-77
2023/10/14 08:31:32;;;;;;;8.20;0.70;;;11.90;99.90;;;;;;4997259;28;20515;-76
2023/10/14 08:34:01;;;;;;;7.50;0.95;;;12.00;99.90;;;;;;5015705;28;20037;-76
2023/10/14 08:36:29;;;;;;;8.02;1.20;;;12.00;99.90;;;;;;5016163;28;20152;-76
2023/10/14 08:38:58;;;;;;;9.43;0.77;;;12.10;99.90;;;;;;5016670;28;20532;-76
2023/10/14 08:41:26;;;;;;;17.17;1.70;;;12.10;99.90;;;;;;5016596;28;20037;-76
2023/10/14 08:43:56;;;;;;;9.13;1.08;;;12.20;99.90;;;;;;5017366;28;20073;-76
2023/10/14 08:46:29;;;;;;;8.88;1.23;;;12.20;99.90;;;;;;5019989;28;20579;-76
2023/10/14 08:48:56;;;;;;;8.85;0.90;;;12.30;99.90;;;;;;5000814;28;20033;-76
2023/10/14 08:51:25;;;;;;;13.73;0.88;;;12.40;99.90;;;;;;5017208;28;20037;-76
2023/10/14 08:53:53;;;;;;;11.15;1.55;;;12.40;99.90;;;;;;5029747;28;20060;-76
2023/10/14 08:56:22;;;;;;;10.27;1.75;;;12.50;99.90;;;;;;5016522;28;20040;-76
2023/10/14 08:58:49;;;;;;;7.70;1.17;;;12.60;99.90;;;;;;5011850;28;20025;-82
2023/10/14 09:01:20;;;;;;;13.57;1.92;;;12.60;99.90;;;;;;5017707;28;20033;-75
2023/10/14 09:03:49;;;;;;;11.05;1.58;;;12.70;99.90;;;;;;5020445;28;20052;-76
2023/10/14 09:06:17;;;;;;;8.50;0.90;;;12.80;99.90;;;;;;5019774;28;20123;-75
2023/10/14 09:08:48;;;;;;;9.23;1.13;;;12.90;99.90;;;;;;5018154;28;20543;-76
2023/10/14 09:11:34;;;;;;;11.80;1.30;;;12.90;99.90;;;;;;5012655;28;20035;-76
2023/10/14 09:14:03;;;;;;;9.95;1.17;;;13.00;99.90;;;;;;5017540;28;20053;-76
2023/10/14 09:16:34;;;;;;;11.13;1.58;;;13.00;99.90;;;;;;4984830;28;20394;-76
2023/10/14 09:19:02;;;;;;;11.27;1.27;;;13.10;99.90;;;;;;5018553;28;20030;-76
2023/10/14 09:21:42;;;;;;;14.48;1.98;;;13.20;99.90;;;;;;5017092;28;20504;-76
2023/10/14 09:24:09;;;;;;;12.30;1.42;;;13.30;99.90;;;;;;5016708;28;20048;-76
2023/10/14 09:26:43;;;;;;;14.68;1.52;;;13.40;99.90;;;;;;5000157;28;20036;-76
2023/10/14 09:29:11;;;;;;;10.85;2.13;;;13.40;99.90;;;;;;5000429;28;20371;-76
2023/10/14 09:31:38;;;;;;;9.73;1.35;;;13.40;99.90;;;;;;5017810;28;20026;-76
2023/10/14 09:34:04;;;;;;;8.85;0.98;;;13.50;99.90;;;;;;4998981;28;20044;-76
2023/10/14 09:36:35;;;;;;;8.60;1.25;;;13.60;99.90;;;;;;5001396;28;20408;-77
2023/10/14 09:39:11;;;;;;;12.93;1.83;;;13.70;99.90;;;;;;5018369;28;20689;-76
2023/10/14 09:41:39;;;;;;;14.60;1.52;;;13.80;99.90;;;;;;5016253;28;20048;-76
2023/10/14 09:44:06;;;;;;;14.63;1.50;;;13.90;99.90;;;;;;5016503;28;20044;-76
2023/10/14 09:46:35;;;;;;;12.10;2.03;;;13.90;99.90;;;;;;4999572;28;20041;-77
2023/10/14 09:49:02;;;;;;;10.48;1.38;;;13.90;99.90;;;;;;5016627;28;20029;-76
2023/10/14 09:51:29;;;;;;;9.50;1.00;;;13.90;99.90;;;;;;5018541;28;20028;-77
2023/10/14 09:53:56;;;;;;;5.97;1.02;;;13.90;99.90;;;;;;5011554;28;20029;-76
2023/10/14 09:56:23;;;;;;;13.60;1.60;;;13.90;99.90;;;;;;4997700;28;20056;-77
2023/10/14 09:58:52;;;;;;;13.05;1.83;;;14.00;99.90;;;;;;5033515;28;20038;-76
2023/10/14 10:01:24;;;;;;;12.82;1.77;;;14.20;99.90;;;;;;5016687;28;20396;-76
2023/10/14 10:03:59;;;;;;;13.35;1.27;;;14.50;99.90;;;;;;5018230;28;20420;-76
2023/10/14 10:06:49;;;;;;;11.70;1.25;;;14.90;99.90;;;;;;5000558;28;20044;-76
2023/10/14 10:09:49;;;;;;;10.05;1.33;;;15.40;99.90;;;;;;5019209;28;21962;-77
2023/10/14 10:12:20;;;;;;;10.95;1.20;;;15.80;99.90;;;;;;5005597;28;20057;-77
2023/10/14 10:14:56;;;;;;;9.23;1.73;;;15.90;99.90;;;;;;4999836;28;20477;-77
2023/10/14 10:17:24;;;;;;;6.28;0.90;;;15.90;99.90;;;;;;5033390;28;20518;-78
2023/10/14 10:20:09;;;;;;;7.65;0.85;;;16.20;99.90;;;;;;5028094;28;20030;-77
2023/10/14 10:22:41;;;;;;;11.38;2.15;;;16.60;99.90;;;;;;5013611;28;20056;-77
2023/10/14 10:25:11;;;;;;;8.25;1.05;;;16.70;99.90;;;;;;5015497;28;20040;-77
2023/10/14 10:27:37;;;;;;;13.35;1.88;;;16.50;99.90;;;;;;5019912;28;20074;-77
2023/10/14 10:30:07;;;;;;;11.25;1.10;;;16.20;99.90;;;;;;5015812;28;20022;-76
2023/10/14 10:32:33;;;;;;;5.47;1.08;;;15.80;99.90;;;;;;5016566;28;20132;-77
2023/10/14 10:35:06;;;;;;;5.20;0.82;;;15.40;99.90;;;;;;5002924;28;20034;-77
2023/10/14 10:37:46;;;;;;;2.95;0.70;;;15.00;99.90;;;;;;5021480;28;20033;-77
2023/10/14 10:40:15;;;;;;;5.78;0.40;;;14.70;99.90;;;;;;5021690;28;20052;-76
2023/10/14 10:42:47;;;;;;;4.72;0.40;;;14.50;99.90;;;;;;5006552;28;20040;-77
2023/10/14 10:45:29;;;;;;;5.35;0.70;;;14.40;99.90;;;;;;5018873;28;21075;-76
2023/10/14 10:47:57;;;;;;;3.45;0.50;;;14.40;99.90;;;;;;5022146;28;20025;-77
2023/10/14 10:50:36;;;;;;;5.10;0.93;;;14.40;99.90;;;;;;5019911;28;20045;-76
2023/10/14 10:53:06;;;;;;;3.75;1.05;;;14.40;99.90;;;;;;5020727;28;20040;-76
2023/10/14 10:55:36;;;;;;;4.30;0.47;;;14.20;99.90;;;;;;5020038;28;20045;-74
2023/10/14 10:58:03;;;;;;;7.38;0.70;;;14.00;99.90;;;;;;5006317;28;20408;-76
2023/10/14 11:00:31;;;;;;;6.65;0.80;;;13.90;99.90;;;;;;4997629;28;20036;-76
2023/10/14 11:03:02;;;;;;;9.70;0.85;;;13.90;99.90;;;;;;5018648;28;20041;-76
2023/10/14 11:05:33;;;;;;;6.07;0.77;;;14.00;99.90;;;;;;5022259;28;20033;-76
2023/10/14 11:08:03;;;;;;;5.13;1.23;;;14.10;99.90;;;;;;5022058;28;20060;-76
2023/10/14 11:10:33;;;;;;;10.80;1.42;;;14.20;99.90;;;;;;5021021;28;20052;-76
2023/10/14 11:13:00;;;;;;;6.97;0.95;;;14.20;99.90;;;;;;5005348;28;20044;-76
2023/10/14 11:15:31;;;;;;;9.77;1.10;;;14.10;99.90;;;;;;5023026;28;20400;-76
2023/10/14 11:17:59;;;;;;;8.98;0.82;;;14.00;99.90;;;;;;5019455;28;20037;-76
2023/10/14 11:20:28;;;;;;;7.68;0.88;;;14.10;99.90;;;;;;5019924;28;20048;-76
2023/10/14 11:22:55;;;;;;;4.60;0.80;;;14.10;99.90;;;;;;5001787;28;20044;-76
2023/10/14 11:25:22;;;;;;;11.38;1.85;;;14.20;99.90;;;;;;4991730;28;20029;-76
2023/10/14 11:27:49;;;;;;;10.88;1.10;;;14.30;99.90;;;;;;5002040;28;20044;-76
2023/10/14 11:30:16;;;;;;;7.85;1.15;;;14.40;99.90;;;;;;5018225;28;20036;-76
2023/10/14 11:32:50;;;;;;;6.90;1.20;;;14.50;99.90;;;;;;5018220;28;20025;-76
2023/10/14 11:35:18;;;;;;;11.20;1.13;;;14.60;99.90;;;;;;5000936;28;20049;-76
2023/10/14 11:37:52;;;;;;;7.70;0.73;;;14.70;99.90;;;;;;5020289;28;20036;-76
2023/10/14 11:40:19;;;;;;;7.30;0.80;;;14.70;99.90;;;;;;5019497;28;20029;-76
2023/10/14 11:42:46;;;;;;;5.28;0.68;;;14.60;99.90;;;;;;5020488;28;20056;-76
2023/10/14 11:45:17;;;;;;;5.85;0.60;;;14.50;99.90;;;;;;5001779;28;20037;-76
2023/10/14 11:47:44;;;;;;;4.35;0.50;;;14.30;99.90;;;;;;5013537;28;20670;-76
2023/10/14 11:50:11;;;;;;;4.50;0.60;;;14.20;99.90;;;;;;5020447;28;20045;-76
2023/10/14 11:52:42;;;;;;;7.90;0.43;;;14.00;99.90;;;;;;5018235;28;20033;-76
2023/10/14 11:55:14;;;;;;;6.38;0.50;;;13.80;99.90;;;;;;5016086;28;20516;-76
2023/10/14 11:57:44;;;;;;;9.55;0.75;;;13.60;99.90;;;;;;4999854;28;20064;-76
2023/10/14 12:00:13;;;;;;;3.92;0.50;;;13.80;99.90;;;;;;5017354;28;20273;-76
2023/10/14 12:02:40;;;;;;;4.38;0.50;;;13.90;99.90;;;;;;5017656;28;20033;-76
2023/10/14 12:05:08;;;;;;;3.95;0.65;;;14.00;99.90;;;;;;5018524;28;20041;-76
2023/10/14 12:07:34;;;;;;;4.75;0.70;;;14.20;99.90;;;;;;5002764;28;20040;-75
2023/10/14 12:10:04;;;;;;;5.15;0.75;;;14.30;99.90;;;;;;5019075;28;20485;-76
2023/10/14 12:12:31;;;;;;;7.05;1.50;;;14.20;99.90;;;;;;5036594;28;20037;-76
2023/10/14 12:15:05;;;;;;;6.70;0.93;;;14.10;99.90;;;;;;5019628;28;20508;-76
2023/10/14 12:17:38;;;;;;;6.55;0.93;;;14.50;99.90;;;;;;5020418;28;20511;-75
2023/10/14 12:20:10;;;;;;;7.30;0.82;;;15.70;99.90;;;;;;5020495;28;22864;-76
2023/10/14 12:22:41;;;;;;;10.77;0.90;;;16.60;99.90;;;;;;5021758;28;20057;-76
2023/10/14 12:25:08;;;;;;;10.60;1.13;;;16.70;99.90;;;;;;5017162;28;20515;-76
2023/10/14 12:27:35;;;;;;;6.38;0.73;;;16.40;99.90;;;;;;5016455;28;20041;-76
2023/10/14 12:30:02;;;;;;;8.70;0.60;;;15.60;99.90;;;;;;5016567;28;20029;-76
2023/10/14 12:32:32;;;;;;;7.15;0.93;;;14.90;99.90;;;;;;5017731;28;20164;-76
2023/10/14 12:35:06;;;;;;;4.03;1.27;;;14.20;99.90;;;;;;5020236;28;20045;-75
2023/10/14 12:37:33;;;;;;;7.45;0.77;;;13.90;99.90;;;;;;5014040;28;20037;-75
2023/10/14 12:40:11;;;;;;;7.88;0.90;;;13.80;99.90;;;;;;5002750;28;20488;-76
2023/10/14 12:42:47;;;;;;;5.97;0.57;;;14.00;99.90;;;;;;5002750;28;20038;-76
2023/10/14 12:45:21;;;;;;;2.90;0.50;;;14.00;99.90;;;;;;5021378;28;20028;-76
2023/10/14 12:47:48;;;;;;;7.13;0.70;;;13.90;99.90;;;;;;5020520;28;20045;-75
2023/10/14 12:50:19;;;;;;;4.55;0.70;;;13.90;99.90;;;;;;5004222;28;20044;-76
2023/10/14 12:52:56;;;;;;;7.85;0.80;;;14.00;99.90;;;;;;5004154;28;20476;-76
2023/10/14 12:55:25;;;;;;;3.63;0.68;;;14.10;99.90;;;;;;4982690;28;20033;-76
2023/10/14 12:57:51;;;;;;;7.63;1.00;;;14.20;99.90;;;;;;4998900;28;20042;-76
2023/10/14 13:00:25;;;;;;;7.00;0.60;;;14.40;99.90;;;;;;5028629;28;20033;-75
2023/10/14 13:02:53;;;;;;;4.95;1.00;;;14.40;99.90;;;;;;5014773;28;20038;-76
2023/10/14 13:05:20;;;;;;;5.18;0.80;;;14.40;99.90;;;;;;5018119;28;20033;-75
2023/10/14 13:07:48;;;;;;;7.50;0.82;;;14.40;99.90;;;;;;5001348;28;20048;-76
2023/10/14 13:10:20;;;;;;;6.05;0.80;;;14.50;99.90;;;;;;5017829;28;20075;-75
2023/10/14 13:12:53;;;;;;;6.15;0.60;;;14.70;99.90;;;;;;5001986;28;20496;-75
2023/10/14 13:15:30;;;;;;;4.57;0.55;;;14.70;99.90;;;;;;5000562;28;20033;-75
2023/10/14 13:17:58;;;;;;;7.18;0.60;;;14.60;99.90;;;;;;4998871;28;20049;-76
2023/10/14 13:20:29;;;;;;;4.85;0.50;;;14.50;99.90;;;;;;5000659;28;20032;-75
2023/10/14 13:23:07;;;;;;;7.78;0.60;;;14.20;99.90;;;;;;5003019;28;20392;-75
2023/10/14 13:25:36;;;;;;;5.63;0.93;;;14.00;99.90;;;;;;5020414;28;20290;-75
2023/10/14 13:28:11;;;;;;;5.25;0.60;;;13.90;99.90;;;;;;5018471;28;20392;-75
2023/10/14 13:30:45;;;;;;;5.63;0.60;;;13.60;99.90;;;;;;4995073;28;20032;-75
2023/10/14 13:33:12;;;;;;;8.45;0.82;;;13.30;99.90;;;;;;4996639;28;20029;-75
2023/10/14 13:35:40;;;;;;;8.68;1.00;;;13.10;99.90;;;;;;5014280;28;20037;-75
2023/10/14 13:38:10;;;;;;;7.43;1.10;;;13.00;99.90;;;;;;5017539;28;20041;-75
2023/10/14 13:40:40;;;;;;;6.47;1.08;;;12.90;99.90;;;;;;5010729;28;20036;-75
2023/10/14 13:43:09;;;;;;;8.07;0.90;;;12.90;99.90;;;;;;4999194;28;20029;-75
2023/10/14 13:45:40;;;;;;;4.68;0.75;;;12.90;99.90;;;;;;4997444;28;20071;-76
2023/10/14 13:48:07;;;;;;;4.57;0.52;;;12.90;99.90;;;;;;5000266;28;20044;-76
2023/10/14 13:50:37;;;;;;;5.43;0.60;;;12.90;99.90;;;;;;5019563;28;20029;-75
2023/10/14 13:53:17;;;;;;;6.45;0.73;;;12.80;99.90;;;;;;5019893;28;20025;-76
2023/10/14 13:55:44;;;;;;;6.45;1.20;;;12.80;99.90;;;;;;5019805;28;20040;-75
2023/10/14 13:58:12;;;;;;;5.03;0.57;;;12.80;99.90;;;;;;5017763;28;20049;-76